Time;durP1;ratioP1;P1;durP2;ratioP2;P2;SDS_P1;SDS_P2;PMS_P1;PMS_P2;Temp;Humidity;BMP_temperature;BMP_pressure;BME280_temperature;BME280_humidity;BME280_pressure;Samples;Min_cycle;Max_cycle;Signal;HPM_P1;HPM_P2
2022/02/11 00:01:17;;;;;;;55.83;51.60;;;;;;;-1.79;100.00;101735.22;4985803;28;20054;-81
2022/02/11 00:06:33;;;;;;;64.18;59.78;;;;;;;-1.77;100.00;101732.53;4983674;28;20125;-81
2022/02/11 00:09:00;;;;;;;78.15;73.00;;;;;;;-1.64;100.00;101743.81;4991002;28;20051;-79
2022/02/11 00:11:33;;;;;;;86.55;80.20;;;;;;;-1.77;100.00;101743.78;4985246;28;20166;-79
2022/02/11 00:13:59;;;;;;;91.40;84.75;;;;;;;-1.89;100.00;101741.97;4982748;28;20109;-79
2022/02/11 00:16:26;;;;;;;85.57;79.65;;;;;;;-1.95;100.00;101734.56;4985929;28;20050;-80
2022/02/11 00:18:58;;;;;;;76.78;71.57;;;;;;;-2.03;100.00;101736.81;4985299;28;20046;-79
2022/02/11 00:21:25;;;;;;;86.63;79.78;;;;;;;-2.12;100.00;101733.03;4986705;28;20050;-79
2022/02/11 00:23:52;;;;;;;94.28;86.18;;;;;;;-2.03;100.00;101735.06;4980769;28;20062;-79
2022/02/11 00:26:19;;;;;;;86.25;77.80;;;;;;;-2.30;100.00;101742.88;4989150;28;20514;-79
2022/02/11 00:31:50;;;;;;;87.05;79.63;;;;;;;-2.17;100.00;101730.75;4978520;28;20506;-79
2022/02/11 00:34:21;;;;;;;93.03;85.57;;;;;;;-2.42;100.00;101741.91;4989221;28;20112;-80
2022/02/11 00:36:58;;;;;;;91.13;83.78;;;;;;;-2.26;100.00;101738.31;4986388;28;20093;-81
2022/02/11 00:39:56;;;;;;;88.82;81.30;;;;;;;-2.47;100.00;101730.94;4986413;28;20047;-79
2022/02/11 01:04:20;;;;;;;153.63;129.98;;;;;;;-2.56;100.00;101708.94;4986696;28;20101;-82
2022/02/11 01:06:48;;;;;;;187.27;131.52;;;;;;;-2.58;100.00;101702.16;4985234;28;20046;-79
2022/02/11 01:09:15;;;;;;;171.80;121.15;;;;;;;-2.47;100.00;101697.13;4985026;28;20128;-80
2022/02/11 01:11:48;;;;;;;155.02;107.07;;;;;;;-2.68;100.00;101704.50;4987376;28;20054;-78
2022/02/11 01:14:15;;;;;;;162.38;112.30;;;;;;;-2.66;100.00;101699.19;4988482;28;20059;-78
2022/02/11 01:16:46;;;;;;;167.20;112.22;;;;;;;-2.54;100.00;101698.44;4985069;28;20046;-79
2022/02/11 01:19:21;;;;;;;136.02;107.60;;;;;;;-2.63;100.00;101696.41;4985778;28;20058;-82
2022/02/11 01:21:58;;;;;;;148.77;112.97;;;;;;;-2.67;100.00;101694.94;4988867;28;20064;-82
2022/02/11 01:24:46;;;;;;;149.65;114.78;;;;;;;-2.61;100.00;101687.56;4984828;28;20055;-79
2022/02/11 01:27:23;;;;;;;154.00;120.78;;;;;;;-2.62;100.00;101677.28;4978757;28;20069;-78
2022/02/11 01:30:15;;;;;;;140.18;113.07;;;;;;;-2.69;100.00;101679.44;4978566;28;20129;-78
2022/02/11 01:32:56;;;;;;;162.52;118.10;;;;;;;-2.69;100.00;101669.03;4986685;28;20463;-79
2022/02/11 01:35:32;;;;;;;135.77;99.25;;;;;;;-2.33;100.00;101671.06;4984497;28;20470;-81
2022/02/11 01:38:10;;;;;;;101.47;75.55;;;;;;;-2.12;100.00;101666.22;4983594;28;20054;-82
2022/02/11 01:41:44;;;;;;;80.75;73.07;;;;;;;-1.88;100.00;101674.16;4985009;28;20418;-79
2022/02/11 01:46:55;;;;;;;63.13;57.65;;;;;;;-1.59;100.00;101675.78;4985166;28;20053;-78
2022/02/11 01:49:45;;;;;;;67.53;61.33;;;;;;;-1.19;100.00;101673.88;4982936;28;20481;-82
2022/02/11 01:52:21;;;;;;;69.20;63.72;;;;;;;-1.50;100.00;101683.78;4981763;28;20457;-80
2022/02/11 01:55:01;;;;;;;78.10;71.78;;;;;;;-1.22;100.00;101680.13;4986986;28;20120;-78
2022/02/11 01:58:03;;;;;;;67.78;62.38;;;;;;;-1.66;100.00;101675.34;4989201;28;20390;-79
2022/02/11 02:00:42;;;;;;;67.88;62.90;;;;;;;-1.80;100.00;101676.28;4992174;28;20046;-78
2022/02/11 02:03:39;;;;;;;63.00;58.30;;;;;;;-1.70;100.00;101679.09;4992483;28;20132;-79
2022/02/11 02:06:32;;;;;;;74.90;68.97;;;;;;;-1.79;100.00;101671.88;4991006;28;20058;-80
2022/02/11 02:15:15;;;;;;;79.68;68.03;;;;;;;-1.96;100.00;101665.22;4985751;28;20136;-81
2022/02/11 02:23:18;;;;;;;62.92;55.15;;;;;;;-2.16;100.00;101669.13;4947007;28;20062;-80
2022/02/11 02:25:57;;;;;;;61.13;54.83;;;;;;;-1.87;100.00;101665.44;4988216;28;20086;-78
2022/02/11 02:29:14;;;;;;;55.80;50.17;;;;;;;-2.04;100.00;101670.91;4994316;28;20081;-78
2022/02/11 02:37:10;;;;;;;50.78;47.08;;;;;;;-1.54;100.00;101678.88;4972028;28;20127;-82
2022/02/11 02:56:43;;;;;;;130.38;97.40;;;;;;;-2.95;100.00;101690.63;4996524;28;20049;-80
2022/02/11 02:59:26;;;;;;;164.77;115.25;;;;;;;-3.22;100.00;101687.00;4989084;28;20066;-79
2022/02/11 03:01:59;;;;;;;138.15;102.55;;;;;;;-2.82;100.00;101678.50;5100447;23;20502;-80
2022/02/11 03:16:12;;;;;;;62.38;56.13;;;;;;;-3.14;100.00;101676.16;4986446;28;20050;-81
2022/02/11 03:35:15;;;;;;;55.75;50.75;;;;;;;-2.56;100.00;101677.72;4986399;28;20056;-79
2022/02/11 03:48:58;;;;;;;56.22;52.03;;;;;;;-2.72;100.00;101690.03;4984454;28;20570;-80
2022/02/11 03:51:37;;;;;;;48.58;44.97;;;;;;;-2.84;100.00;101696.81;4985611;28;20406;-79
2022/02/11 04:22:06;;;;;;;84.63;66.28;;;;;;;-3.58;100.00;101697.81;4987813;28;20121;-82
2022/02/11 04:55:17;;;;;;;58.65;53.72;;;;;;;-3.35;100.00;101703.44;4988732;28;20069;-79
2022/02/11 05:00:28;;;;;;;69.82;63.97;;;;;;;-3.34;100.00;101695.53;4984387;28;20113;-79
2022/02/11 05:02:57;;;;;;;60.13;55.13;;;;;;;-3.08;100.00;101699.16;4986139;28;20383;-80
2022/02/11 05:05:24;;;;;;;59.53;54.53;;;;;;;-3.28;100.00;101694.34;4980603;28;20121;-81
2022/02/11 05:07:51;;;;;;;60.33;55.42;;;;;;;-3.35;100.00;101704.25;4984564;28;20053;-81
2022/02/11 05:10:20;;;;;;;59.70;54.90;;;;;;;-3.38;100.00;101703.63;4988564;28;20108;-80
2022/02/11 05:12:47;;;;;;;55.80;51.10;;;;;;;-3.53;100.00;101716.56;4980018;28;20198;-82
2022/02/11 05:15:15;;;;;;;57.08;51.97;;;;;;;-3.54;100.00;101717.53;4985694;28;20113;-80
2022/02/11 05:17:45;;;;;;;93.97;67.05;;;;;;;-3.57;100.00;101716.84;4986384;28;20059;-80
2022/02/11 05:20:12;;;;;;;123.55;78.32;;;;;;;-3.51;100.00;101721.66;4987410;28;20074;-79
2022/02/11 05:22:39;;;;;;;102.45;70.45;;;;;;;-3.21;100.00;101719.00;4980817;28;20565;-80
2022/02/11 05:25:08;;;;;;;75.82;62.30;;;;;;;-3.28;100.00;101720.31;4992038;28;20509;-82
2022/02/11 05:27:37;;;;;;;75.18;61.47;;;;;;;-3.40;100.00;101723.66;4986124;28;20082;-80
2022/02/11 05:30:05;;;;;;;84.68;65.82;;;;;;;-3.30;100.00;101720.44;4989268;28;20089;-80
2022/02/11 05:32:31;;;;;;;98.50;72.28;;;;;;;-3.28;100.00;101721.16;4982602;28;20376;-82
2022/02/11 05:34:58;;;;;;;108.57;72.32;;;;;;;-3.39;100.00;101722.72;4987239;28;20046;-80
2022/02/11 05:37:25;;;;;;;103.82;70.72;;;;;;;-3.35;100.00;101721.63;4984796;28;20050;-80
2022/02/11 05:39:52;;;;;;;83.82;64.82;;;;;;;-3.34;100.00;101731.91;4980435;28;20116;-82
2022/02/11 05:42:19;;;;;;;85.53;67.20;;;;;;;-3.31;100.00;101730.91;4992667;28;20105;-81
2022/02/11 05:44:47;;;;;;;63.75;57.03;;;;;;;-3.29;100.00;101734.25;4992729;28;20047;-79
2022/02/11 05:47:14;;;;;;;65.68;58.10;;;;;;;-3.13;100.00;101736.75;4991637;28;20050;-81
2022/02/11 05:49:40;;;;;;;79.93;72.13;;;;;;;-2.98;100.00;101733.22;4987488;28;20415;-82
2022/02/11 05:52:08;;;;;;;61.47;55.50;;;;;;;-3.14;100.00;101742.91;4991439;28;20553;-82
2022/02/11 05:54:35;;;;;;;76.05;68.93;;;;;;;-2.96;100.00;101731.38;4992006;28;20054;-79
2022/02/11 05:57:02;;;;;;;82.25;74.28;;;;;;;-2.58;100.00;101733.38;4987347;28;20058;-80
2022/02/11 05:59:29;;;;;;;85.30;77.63;;;;;;;-2.65;100.00;101732.09;4981325;28;20120;-82
2022/02/11 06:01:57;;;;;;;79.57;72.15;;;;;;;-2.35;100.00;101729.34;4989848;28;20132;-80
2022/02/11 06:04:24;;;;;;;95.38;85.57;;;;;;;-2.02;100.00;101734.16;4990694;28;20125;-79
2022/02/11 06:06:51;;;;;;;96.32;86.60;;;;;;;-1.74;100.00;101735.78;4990256;28;20061;-80
2022/02/11 06:09:18;;;;;;;94.13;84.43;;;;;;;-1.29;100.00;101738.03;4990510;28;20088;-80
2022/02/11 06:11:45;;;;;;;96.65;87.38;;;;;;;-1.46;100.00;101737.38;4988395;28;20107;-81
2022/02/11 06:14:13;;;;;;;91.22;82.75;;;;;;;-1.03;100.00;101739.69;4958936;28;20062;-80
2022/02/11 06:16:40;;;;;;;83.38;75.28;;;;;;;-0.60;100.00;101739.31;4992348;28;20077;-79
2022/02/11 06:19:08;;;;;;;79.20;71.57;;;;;;;-0.39;100.00;101742.16;4989013;28;20046;-79
2022/02/11 06:21:34;;;;;;;84.82;77.05;;;;;;;0.10;100.00;101729.94;4984458;28;20487;-79
2022/02/11 06:24:01;;;;;;;103.03;92.28;;;;;;;-0.01;100.00;101738.56;4986426;28;20046;-79
2022/02/11 06:26:28;;;;;;;91.82;82.78;;;;;;;0.72;100.00;101742.69;4986030;28;20058;-80
2022/02/11 06:28:57;;;;;;;105.55;95.22;;;;;;;1.16;100.00;101745.47;4996665;28;20058;-81
2022/02/11 06:31:24;;;;;;;105.63;96.63;;;;;;;4.56;100.00;101746.22;4987131;28;20090;-80
2022/02/11 06:33:51;;;;;;;93.05;85.28;;;;;;;3.07;100.00;101737.63;4992023;28;20478;-80
2022/02/11 06:36:20;;;;;;;102.55;93.40;;;;;;;2.42;100.00;101741.41;4991588;28;20482;-80
2022/02/11 06:38:47;;;;;;;109.25;99.72;;;;;;;3.29;100.00;101741.03;4990968;28;20058;-81
2022/02/11 06:41:14;;;;;;;101.88;92.82;;;;;;;3.42;100.00;101750.34;4989305;28;20116;-80
2022/02/11 06:43:42;;;;;;;99.50;91.03;;;;;;;4.10;100.00;101745.16;4983229;28;20058;-80
2022/02/11 06:46:09;;;;;;;104.20;95.53;;;;;;;4.65;100.00;101752.44;4987665;28;20050;-79
2022/02/11 06:48:35;;;;;;;97.28;88.72;;;;;;;4.71;100.00;101757.13;4995259;28;20051;-80
2022/02/11 06:51:02;;;;;;;144.98;122.93;;;;;;;3.70;100.00;101758.41;4995983;28;20046;-80
2022/02/11 06:53:30;;;;;;;128.25;112.85;;;;;;;2.84;100.00;101752.69;4987441;28;20109;-80
2022/02/11 06:55:57;;;;;;;97.28;88.45;;;;;;;2.59;100.00;101756.56;4987200;28;20063;-80
2022/02/11 06:58:24;;;;;;;102.28;92.97;;;;;;;3.07;100.00;101755.16;4982904;28;20116;-80
2022/02/11 07:00:51;;;;;;;99.82;91.00;;;;;;;3.93;100.00;101758.97;4986533;28;20470;-80
2022/02/11 07:03:19;;;;;;;109.65;99.30;;;;;;;4.40;100.00;101756.50;4989992;28;20554;-80
2022/02/11 07:05:46;;;;;;;99.10;89.88;;;;;;;4.89;100.00;101757.25;4992412;28;20042;-81
2022/02/11 07:08:13;;;;;;;97.88;88.80;;;;;;;5.57;100.00;101764.88;4988774;28;20046;-81
2022/02/11 07:10:41;;;;;;;102.70;91.75;;;;;;;5.58;100.00;101768.31;4988779;28;20121;-80
2022/02/11 07:13:13;;;;;;;94.57;85.47;;;;;;;4.87;100.00;101761.84;4984479;28;20127;-81
2022/02/11 07:15:40;;;;;;;98.57;86.55;;;;;;;5.72;100.00;101766.00;4991537;28;20043;-79
2022/02/11 07:18:07;;;;;;;99.53;88.97;;;;;;;6.42;100.00;101760.09;4990921;28;20054;-80
2022/02/11 07:20:34;;;;;;;126.80;99.65;;;;;;;6.74;100.00;101772.69;4988911;28;20479;-80
2022/02/11 07:23:01;;;;;;;166.05;110.65;;;;;;;6.79;100.00;101762.50;4991330;28;20645;-81
2022/02/11 07:25:28;;;;;;;163.60;114.07;;;;;;;6.89;100.00;101759.75;4990675;28;20047;-80
2022/02/11 07:27:56;;;;;;;124.70;101.65;;;;;;;7.11;100.00;101753.13;4984999;28;20043;-81
2022/02/11 07:30:23;;;;;;;106.45;95.80;;;;;;;7.64;100.00;101751.16;4983730;28;20039;-81
2022/02/11 07:32:51;;;;;;;94.35;86.15;;;;;;;7.62;100.00;101738.06;4986493;28;20051;-79
2022/02/11 07:35:18;;;;;;;87.15;80.63;;;;;;;7.68;100.00;101740.06;4986566;28;20054;-80
2022/02/11 07:37:45;;;;;;;87.55;80.88;;;;;;;7.74;100.00;101744.72;4987451;28;20054;-81
2022/02/11 07:40:13;;;;;;;89.68;82.70;;;;;;;7.80;100.00;101736.13;4990388;28;20120;-80
2022/02/11 07:42:41;;;;;;;99.75;90.07;;;;;;;8.85;100.00;101736.31;4987635;28;20112;-81
2022/02/11 07:45:11;;;;;;;100.13;91.03;;;;;;;9.40;100.00;101745.22;4992469;28;20042;-80
2022/02/11 07:47:38;;;;;;;107.70;97.90;;;;;;;9.56;100.00;101745.16;4986263;28;20050;-80
2022/02/11 07:50:06;;;;;;;106.78;97.22;;;;;;;10.16;100.00;101738.25;4991524;28;20112;-79
2022/02/11 07:52:33;;;;;;;102.03;93.65;;;;;;;9.85;100.00;101727.72;4989705;28;20457;-81
2022/02/11 07:54:59;;;;;;;101.00;92.78;;;;;;;10.40;100.00;101728.47;4993375;28;20450;-80
2022/02/11 07:57:26;;;;;;;96.05;88.88;;;;;;;11.58;100.00;101731.09;4996586;28;20110;-80
2022/02/11 07:59:53;;;;;;;91.97;84.90;;;;;;;11.85;100.00;101729.56;4985674;28;20055;-81
2022/02/11 08:02:21;;;;;;;94.68;87.65;;;;;;;11.43;100.00;101733.78;4985421;28;20124;-81
2022/02/11 08:04:48;;;;;;;90.47;84.00;;;;;;;11.38;100.00;101727.41;4990220;28;20499;-81
2022/02/11 08:07:15;;;;;;;88.32;82.15;;;;;;;11.83;100.00;101736.06;4993662;28;20050;-79
2022/02/11 08:09:41;;;;;;;90.20;83.85;;;;;;;12.52;100.00;101727.47;4991301;28;20042;-80
2022/02/11 08:12:08;;;;;;;91.10;84.03;;;;;;;11.99;100.00;101724.38;4996942;28;20054;-81
2022/02/11 08:14:35;;;;;;;90.93;84.53;;;;;;;12.21;100.00;101733.19;4983350;28;20080;-81
2022/02/11 08:17:02;;;;;;;88.40;82.20;;;;;;;12.77;98.55;101728.69;4990270;28;20058;-81
2022/02/11 08:19:30;;;;;;;86.90;80.68;;;;;;;10.97;100.00;101731.38;4991487;28;20116;-80
2022/02/11 08:21:57;;;;;;;85.22;79.53;;;;;;;11.03;100.00;101740.44;4992622;28;20113;-79
2022/02/11 08:24:24;;;;;;;86.32;80.22;;;;;;;10.50;100.00;101726.41;4986235;28;20077;-79
2022/02/11 08:26:50;;;;;;;90.60;84.45;;;;;;;12.68;100.00;101729.88;4988562;28;20051;-79
2022/02/11 08:29:21;;;;;;;89.50;83.65;;;;;;;12.25;97.81;101729.09;4979510;28;20427;-81
2022/02/11 08:31:48;;;;;;;88.07;82.28;;;;;;;12.58;90.63;101732.03;4981489;28;20058;-81
2022/02/11 08:34:14;;;;;;;88.85;82.47;;;;;;;11.90;95.94;101737.81;4990531;28;20046;-80
2022/02/11 08:36:42;;;;;;;87.55;81.15;;;;;;;11.73;96.97;101724.91;4991677;28;20057;-79
2022/02/11 08:39:09;;;;;;;92.82;86.00;;;;;;;12.53;94.84;101721.97;4994061;28;20544;-80
2022/02/11 08:41:37;;;;;;;106.70;99.00;;;;;;;11.76;92.53;101728.00;4984571;28;20047;-80
2022/02/11 08:44:04;;;;;;;104.63;97.22;;;;;;;12.66;91.23;101726.56;4989699;28;20410;-80
2022/02/11 08:46:31;;;;;;;100.03;93.38;;;;;;;13.17;88.57;101717.41;4985503;28;20487;-80
2022/02/11 08:48:58;;;;;;;104.00;97.13;;;;;;;13.13;89.95;101721.47;4986642;28;20122;-79
2022/02/11 08:51:26;;;;;;;109.00;101.80;;;;;;;12.90;93.58;101708.47;4989387;28;20050;-79
2022/02/11 08:53:56;;;;;;;108.07;100.88;;;;;;;13.33;86.34;101713.59;4983925;28;20054;-78
2022/02/11 08:56:25;;;;;;;98.72;91.88;;;;;;;13.45;87.00;101714.66;4987532;28;20056;-80
2022/02/11 08:58:52;;;;;;;86.88;80.90;;;;;;;13.55;85.40;101712.44;4986582;28;20404;-79
2022/02/11 09:01:19;;;;;;;86.50;80.45;;;;;;;13.41;87.73;101705.44;4986627;28;20057;-79
2022/02/11 09:03:45;;;;;;;94.70;87.55;;;;;;;12.48;83.00;101699.59;4992489;28;20062;-78
2022/02/11 09:06:12;;;;;;;100.15;92.63;;;;;;;14.42;78.16;101708.81;4990089;28;20442;-80
2022/02/11 09:08:40;;;;;;;92.75;86.22;;;;;;;14.42;81.57;101695.44;4983346;28;20498;-78
2022/02/11 09:11:09;;;;;;;92.80;86.03;;;;;;;13.80;78.58;101706.53;4986916;28;20051;-81
2022/02/11 09:13:36;;;;;;;96.70;89.47;;;;;;;13.15;94.10;101712.25;4985461;28;20125;-78
2022/02/11 09:16:03;;;;;;;95.72;88.32;;;;;;;12.98;95.23;101703.78;4992280;28;20467;-79
2022/02/11 09:18:30;;;;;;;92.22;84.80;;;;;;;13.89;87.46;101710.66;4989188;28;20140;-80
2022/02/11 09:20:58;;;;;;;90.72;83.80;;;;;;;12.89;78.79;101704.13;4989375;28;20057;-79
2022/02/11 09:23:25;;;;;;;92.28;85.15;;;;;;;13.02;90.86;101705.03;4983044;28;20054;-80
2022/02/11 09:25:53;;;;;;;91.05;84.07;;;;;;;12.86;84.11;101704.50;4987338;28;20134;-80
2022/02/11 09:28:21;;;;;;;100.53;93.00;;;;;;;13.15;92.48;101704.25;4995863;28;20042;-80
2022/02/11 09:30:48;;;;;;;90.55;83.78;;;;;;;13.73;87.21;101704.66;4988773;28;20475;-83
2022/02/11 09:33:16;;;;;;;94.45;87.43;;;;;;;12.68;88.24;101697.88;4992893;28;20459;-80
2022/02/11 09:35:45;;;;;;;97.25;90.13;;;;;;;13.98;87.77;101704.09;4989110;28;20108;-79
2022/02/11 09:38:13;;;;;;;105.88;98.10;;;;;;;12.57;95.23;101695.75;4986018;28;20086;-79
2022/02/11 09:40:44;;;;;;;105.18;97.50;;;;;;;14.29;92.50;101698.13;4985424;28;20054;-80
2022/02/11 09:43:15;;;;;;;94.57;87.68;;;;;;;14.27;78.13;101689.50;4986435;28;20050;-79
2022/02/11 09:45:44;;;;;;;100.30;92.90;;;;;;;15.37;76.74;101692.31;4992421;28;20050;-80
2022/02/11 09:48:11;;;;;;;89.80;82.82;;;;;;;14.19;75.32;101677.19;4991163;28;20054;-79
2022/02/11 09:50:38;;;;;;;90.68;83.95;;;;;;;14.47;80.38;101675.31;4985300;28;20065;-78
2022/02/11 09:53:05;;;;;;;92.68;85.70;;;;;;;14.63;78.73;101674.88;4989141;28;20110;-78
2022/02/11 09:55:33;;;;;;;110.55;102.47;;;;;;;14.80;78.89;101677.94;4990042;28;20069;-78
2022/02/11 09:58:01;;;;;;;101.28;93.78;;;;;;;13.51;87.57;101677.31;4992462;28;20483;-79
2022/02/11 10:00:28;;;;;;;93.15;86.35;;;;;;;14.51;82.18;101669.34;4993007;28;20085;-80
2022/02/11 10:02:57;;;;;;;98.60;91.00;;;;;;;14.09;82.14;101663.41;4988943;28;20112;-79
2022/02/11 10:05:25;;;;;;;94.60;87.47;;;;;;;13.27;89.60;101662.69;4989947;28;20104;-80
2022/02/11 10:07:52;;;;;;;91.18;83.85;;;;;;;13.61;90.46;101655.56;4985235;28;20051;-78
2022/02/11 10:10:38;;;;;;;99.10;91.32;;;;;;;14.75;87.03;101656.34;4991215;28;20376;-78
2022/02/11 10:13:07;;;;;;;95.20;88.10;;;;;;;12.81;87.17;101647.28;4991595;28;20395;-81
2022/02/11 10:15:37;;;;;;;91.55;84.65;;;;;;;13.33;91.78;101652.22;4989165;28;20054;-79
2022/02/11 10:18:05;;;;;;;96.78;89.38;;;;;;;13.77;89.50;101637.50;4987693;28;20058;-79
2022/02/11 10:20:36;;;;;;;96.13;88.72;;;;;;;14.23;89.41;101639.38;4984612;28;20479;-80
2022/02/11 10:23:12;;;;;;;93.30;86.28;;;;;;;15.65;75.98;101634.88;4988679;28;20058;-79
2022/02/11 10:26:05;;;;;;;103.60;95.82;;;;;;;14.60;79.46;101630.66;4985901;28;20060;-78
2022/02/11 10:28:35;;;;;;;;;;;;;;;14.81;82.22;101624.22;4987629;28;20050;-80
2022/02/11 10:31:03;;;;;;;91.95;84.63;;;;;;;16.00;73.41;101621.84;4994805;28;19921;-79
2022/02/11 10:33:51;;;;;;;89.78;82.40;;;;;;;14.68;81.27;101615.44;4994125;28;20064;-79
2022/02/11 10:36:20;;;;;;;87.47;80.68;;;;;;;13.92;81.13;101598.09;4985279;28;20055;-79
2022/02/11 10:38:47;;;;;;;86.03;79.35;;;;;;;16.35;76.93;101607.91;4989321;28;20454;-79
2022/02/11 10:41:21;;;;;;;94.25;87.15;;;;;;;15.66;82.25;101604.38;4996207;28;20434;-80
2022/02/11 10:43:49;;;;;;;90.30;83.60;;;;;;;15.94;78.30;101604.78;4986800;28;20494;-78
2022/02/11 10:46:17;;;;;;;93.47;86.18;;;;;;;16.03;82.34;101605.31;4991982;28;20051;-80
2022/02/11 10:48:46;;;;;;;92.95;85.88;;;;;;;14.74;72.41;101596.69;4995716;28;20482;-80
2022/02/11 10:51:23;;;;;;;95.10;87.60;;;;;;;11.85;83.40;101596.47;4993366;28;20474;-81
2022/02/11 10:53:51;;;;;;;90.97;84.05;;;;;;;11.94;100.00;101583.84;4996642;28;20052;-79
2022/02/11 10:56:18;;;;;;;91.97;84.97;;;;;;;10.51;99.16;101592.56;5000043;28;20130;-79
2022/02/11 10:58:56;;;;;;;91.80;84.47;;;;;;;12.69;100.00;101584.09;4985717;28;20094;-78
2022/02/11 11:01:27;;;;;;;103.55;95.97;;;;;;;11.27;100.00;101579.75;4996646;28;20061;-79
2022/02/11 11:03:57;;;;;;;94.78;87.80;;;;;;;11.82;100.00;101572.88;4994484;28;20478;-78
2022/02/11 11:06:25;;;;;;;105.20;97.30;;;;;;;12.99;100.00;101576.59;4996945;28;20047;-80
2022/02/11 11:08:54;;;;;;;108.85;100.68;;;;;;;13.19;99.02;101564.16;4996510;28;20050;-78
2022/02/11 11:11:24;;;;;;;104.25;96.65;;;;;;;12.70;100.00;101573.22;4992158;28;20054;-79
2022/02/11 11:13:54;;;;;;;105.32;97.15;;;;;;;12.72;100.00;101575.69;4994508;28;20046;-81
2022/02/11 11:16:22;;;;;;;97.53;90.45;;;;;;;12.40;100.00;101571.84;4995011;28;20483;-78
2022/02/11 11:18:49;;;;;;;102.05;94.47;;;;;;;11.60;100.00;101561.44;4988105;28;20046;-79
2022/02/11 11:21:18;;;;;;;99.38;92.03;;;;;;;12.37;97.33;101549.94;4998321;28;20447;-78
2022/02/11 11:24:04;;;;;;;101.43;94.05;;;;;;;11.75;100.00;101560.53;4993143;28;20082;-81
2022/02/11 11:26:39;;;;;;;103.47;96.28;;;;;;;10.81;99.82;101555.34;4987830;28;20464;-78
2022/02/11 11:29:09;;;;;;;112.68;104.32;;;;;;;12.64;100.00;101560.69;4990486;28;20042;-82
2022/02/11 11:31:37;;;;;;;107.93;100.20;;;;;;;12.55;93.09;101552.03;4989157;28;20129;-78
2022/02/11 11:34:27;;;;;;;77.90;73.90;;;;;;;11.86;100.00;101555.56;4987097;28;20047;-79
2022/02/11 11:36:58;;;;;;;69.85;65.75;;;;;;;11.85;94.61;101555.72;4993072;28;20194;-79
2022/02/11 11:39:25;;;;;;;72.00;67.75;;;;;;;10.84;99.38;101545.16;4991026;28;20086;-78
2022/02/11 11:42:06;;;;;;;71.32;66.90;;;;;;;11.43;93.02;101536.13;4988477;28;20447;-78
2022/02/11 11:44:52;;;;;;;65.60;61.38;;;;;;;12.20;100.00;101550.44;4991343;28;20082;-79
2022/02/11 11:47:29;;;;;;;60.63;56.22;;;;;;;12.12;92.33;101554.06;4984897;28;20388;-82
2022/02/11 11:49:57;;;;;;;62.05;56.88;;;;;;;14.28;91.56;101532.66;4994905;28;20435;-83
2022/02/11 11:52:41;;;;;;;59.35;55.90;;;;;;;11.34;87.56;101529.28;4995250;28;20074;-78
2022/02/11 11:55:22;;;;;;;60.40;56.88;;;;;;;13.64;80.32;101529.69;4987848;28;20051;-81
2022/02/11 11:57:49;;;;;;;63.25;59.38;;;;;;;14.87;82.30;101519.06;4993566;28;20403;-80
2022/02/11 12:00:34;;;;;;;65.72;61.15;;;;;;;16.86;70.90;101521.69;4991763;28;20046;-81
2022/02/11 12:03:01;;;;;;;65.38;61.17;;;;;;;15.78;75.59;101525.00;4985918;28;20054;-80
2022/02/11 12:05:53;;;;;;;63.88;59.70;;;;;;;16.24;67.46;101518.31;4993798;28;20127;-80
2022/02/11 12:08:24;;;;;;;63.95;59.72;;;;;;;16.89;64.17;101515.06;4984684;28;20471;-79
2022/02/11 12:10:51;;;;;;;63.83;59.60;;;;;;;17.34;65.25;101518.09;4994797;28;20043;-78
2022/02/11 12:13:19;;;;;;;62.95;58.55;;;;;;;16.44;65.02;101510.88;4996028;28;20054;-78
2022/02/11 12:15:46;;;;;;;62.08;57.75;;;;;;;14.89;71.44;101510.84;4992052;28;20043;-80
2022/02/11 12:18:13;;;;;;;60.13;56.38;;;;;;;18.36;59.50;101503.41;4992196;28;20050;-79
2022/02/11 12:20:40;;;;;;;60.38;55.88;;;;;;;17.45;56.92;101497.66;4991079;28;20054;-81
2022/02/11 12:28:38;;;;;;;75.20;70.78;;;;;;;16.13;60.99;101481.56;4994269;28;20053;-79
2022/02/11 12:31:07;;;;;;;66.75;62.33;;;;;;;16.31;62.76;101492.28;4993681;28;20141;-81
2022/02/11 12:33:34;;;;;;;64.38;60.58;;;;;;;14.32;62.78;101481.28;4989115;28;20077;-80
2022/02/11 12:36:11;;;;;;;65.45;61.33;;;;;;;17.39;59.22;101480.59;4988889;28;20427;-80
2022/02/11 12:38:39;;;;;;;62.25;58.08;;;;;;;16.23;62.02;101471.94;4987876;28;20440;-80
2022/02/11 12:41:07;;;;;;;61.60;57.75;;;;;;;16.52;62.13;101472.22;4989330;28;20046;-78
2022/02/11 12:43:34;;;;;;;61.75;58.05;;;;;;;17.18;57.45;101473.09;4987968;28;20054;-80
2022/02/11 12:46:04;;;;;;;67.47;63.08;;;;;;;17.12;60.35;101471.34;4991171;28;20116;-78
2022/02/11 12:48:33;;;;;;;68.72;64.53;;;;;;;16.15;62.59;101468.75;4989652;28;20064;-78
2022/02/11 12:51:00;;;;;;;67.53;63.28;;;;;;;17.93;59.03;101463.56;4986755;28;20083;-79
2022/02/11 12:53:28;;;;;;;70.28;65.85;;;;;;;16.70;60.62;101465.97;4988635;28;20058;-80
2022/02/11 12:55:55;;;;;;;66.75;62.15;;;;;;;18.52;58.09;101469.59;4995091;28;20562;-80
2022/02/11 12:58:24;;;;;;;61.67;57.63;;;;;;;17.21;58.23;101461.91;4988454;28;20047;-80
2022/02/11 13:00:51;;;;;;;62.28;58.47;;;;;;;16.70;58.59;101465.97;4989506;28;20120;-80
2022/02/11 13:03:19;;;;;;;64.32;59.88;;;;;;;16.78;59.34;101463.00;4986408;28;20047;-78
2022/02/11 13:05:49;;;;;;;65.95;61.67;;;;;;;16.71;59.36;101463.06;4990166;28;20054;-78
2022/02/11 13:08:21;;;;;;;68.30;63.90;;;;;;;17.37;59.98;101460.41;4994064;28;20046;-80
2022/02/11 13:10:55;;;;;;;72.90;68.15;;;;;;;17.70;58.83;101461.66;4992498;28;20053;-80
2022/02/11 13:13:23;;;;;;;66.20;61.95;;;;;;;17.13;58.44;101464.94;4987945;28;20458;-80
2022/02/11 13:15:51;;;;;;;66.07;62.15;;;;;;;16.96;58.13;101456.75;4989758;28;20046;-79
2022/02/11 13:18:19;;;;;;;62.15;57.95;;;;;;;17.10;56.86;101447.44;4990094;28;20116;-81
2022/02/11 13:20:48;;;;;;;62.90;58.83;;;;;;;18.20;56.51;101463.84;4995011;28;20387;-81
2022/02/11 13:23:18;;;;;;;62.45;58.67;;;;;;;18.06;54.92;101457.91;4993329;28;20081;-79
2022/02/11 13:25:45;;;;;;;67.88;63.90;;;;;;;16.90;57.46;101449.59;4988349;28;20050;-79
2022/02/11 13:28:14;;;;;;;64.50;60.67;;;;;;;16.65;57.90;101442.50;4989419;28;20070;-78
2022/02/11 13:30:45;;;;;;;70.10;65.88;;;;;;;18.29;53.18;101451.66;4991980;28;20046;-79
2022/02/11 13:33:20;;;;;;;67.13;62.85;;;;;;;16.49;58.49;101454.72;4987362;28;20058;-80
2022/02/11 13:35:47;;;;;;;70.55;66.55;;;;;;;16.92;56.97;101442.97;4990932;28;20046;-80
2022/02/11 13:38:21;;;;;;;63.22;59.42;;;;;;;16.30;57.73;101445.06;4985085;28;20082;-78
2022/02/11 13:40:52;;;;;;;65.13;61.05;;;;;;;16.85;58.52;101446.78;4995886;28;20055;-78
2022/02/11 13:43:19;;;;;;;63.78;60.15;;;;;;;16.69;58.91;101443.69;4989982;28;20054;-80
2022/02/11 13:45:53;;;;;;;63.25;59.45;;;;;;;18.04;56.33;101436.66;4991636;28;20479;-79
2022/02/11 13:48:21;;;;;;;62.80;58.92;;;;;;;16.85;59.07;101444.09;4978737;28;20051;-78
2022/02/11 13:51:13;;;;;;;67.32;63.17;;;;;;;14.62;61.61;101440.66;4982278;28;20050;-81
2022/02/11 13:53:41;;;;;;;62.88;58.92;;;;;;;16.22;59.24;101451.56;4976617;28;20149;-79
2022/02/11 13:56:10;;;;;;;64.43;60.40;;;;;;;16.49;58.72;101438.63;4994372;28;20129;-80
2022/02/11 13:58:37;;;;;;;63.72;59.92;;;;;;;17.51;57.69;101434.13;4987523;28;20058;-79
2022/02/11 14:01:26;;;;;;;62.08;58.40;;;;;;;16.08;62.60;101441.22;4994122;28;20054;-80
2022/02/11 14:03:58;;;;;;;61.70;57.95;;;;;;;17.25;56.72;101432.75;4991900;28;20078;-80
2022/02/11 14:06:25;;;;;;;60.97;57.03;;;;;;;17.16;56.76;101430.41;4990981;28;20065;-81
2022/02/11 14:08:53;;;;;;;65.32;61.38;;;;;;;16.54;59.14;101429.06;4986784;28;20116;-81
2022/02/11 14:11:21;;;;;;;67.32;63.28;;;;;;;17.15;57.81;101422.56;4988976;28;20082;-80